Reek, Netherlands
Current Conditions -  °F | °C
As of 5:25 PM on Saturday 22 Nov 2014 (Local Time) from EHVK Reporting Station
Broken Clouds Broken Clouds  
Wind Chill: 46°   Ceiling: 16000
Heat Index: 48°   Visibility: 6mi
Dew Point: 45°   Wind: 6mph
Humidity: 87%   Direction: 120°ESE
Pressure: 30.03"   Gusts: NA
Location:  51.75°N, 5.68°E
Report Text: EHVK 221625Z AUTO 12005KT 9999 BKN160 09/07 Q1017 BLU
Loading
Personal Weather Stations






























Interactive Weather Map New forecast layout! Learn more

10-Day Weather Forecast

Advertisements
Track Severe Weather on mobile